createdAt,value
2023-02-23T00:01:05.721Z,100028.59
2023-02-23T00:03:33.674Z,100027.72
2023-02-23T00:06:01.450Z,100019.38
2023-02-23T00:08:29.648Z,100025.00
2023-02-23T00:10:58.728Z,100020.59
2023-02-23T00:13:26.556Z,100025.22
2023-02-23T00:15:55.916Z,100027.31
2023-02-23T00:18:24.094Z,100022.91
2023-02-23T00:20:51.912Z,100019.31
2023-02-23T00:23:20.186Z,100016.59
2023-02-23T00:25:47.963Z,100021.00
2023-02-23T00:28:16.273Z,100022.03
2023-02-23T00:30:46.776Z,100016.78
2023-02-23T00:33:14.963Z,100016.16
2023-02-23T00:35:42.866Z,100024.50
2023-02-23T00:38:10.706Z,100019.28
2023-02-23T00:40:38.570Z,100022.00
2023-02-23T00:43:06.435Z,100025.78
2023-02-23T00:45:34.932Z,100027.63
2023-02-23T00:48:03.812Z,100027.84
2023-02-23T00:50:33.064Z,100024.28
2023-02-23T00:53:01.927Z,100021.75
2023-02-23T00:55:29.703Z,100015.66
2023-02-23T00:57:58.502Z,100027.59
2023-02-23T01:00:26.585Z,100032.41
2023-02-23T01:02:54.317Z,100033.44
2023-02-23T01:05:22.303Z,100029.00
2023-02-23T01:07:50.974Z,100021.88
2023-02-23T01:10:21.799Z,100037.41
2023-02-23T01:12:49.835Z,100035.91
2023-02-23T01:15:17.592Z,100026.88
2023-02-23T01:17:45.393Z,100031.31
2023-02-23T01:20:17.650Z,100031.50
2023-02-23T01:22:45.439Z,100028.75
2023-02-23T01:25:13.479Z,100023.31
2023-02-23T01:27:41.271Z,100027.28
2023-02-23T01:30:09.234Z,100028.97
2023-02-23T01:32:37.659Z,100024.56
2023-02-23T01:35:05.595Z,100018.25
2023-02-23T01:37:35.364Z,100009.44
2023-02-23T01:40:06.141Z,100015.72
2023-02-23T01:42:34.013Z,100012.16
2023-02-23T01:45:01.798Z,100009.44
2023-02-23T01:47:29.936Z,100009.44
2023-02-23T01:49:57.737Z,100002.97
2023-02-23T01:52:25.824Z,100005.69
2023-02-23T01:54:53.800Z,100003.16
2023-02-23T01:57:21.759Z,99998.53
2023-02-23T01:59:49.783Z,99996.84
2023-02-23T02:02:17.538Z,99993.09
2023-02-23T02:04:45.492Z,99990.34
2023-02-23T02:07:14.525Z,99997.69
2023-02-23T02:10:02.624Z,99985.97
2023-02-23T02:12:30.353Z,99991.41
2023-02-23T02:14:59.626Z,99990.34
2023-02-23T02:17:27.381Z,99982.59
2023-02-23T02:19:55.188Z,99994.97
2023-02-23T02:22:22.992Z,99982.41
2023-02-23T02:24:52.392Z,99984.25
2023-02-23T02:27:20.443Z,99977.78
2023-02-23T02:29:48.303Z,99976.09
2023-02-23T02:32:18.080Z,99976.28
2023-02-23T02:34:45.902Z,99975.47
2023-02-23T02:37:13.685Z,99972.09
2023-02-23T02:39:43.433Z,99975.88
2023-02-23T02:42:12.190Z,99969.53
2023-02-23T02:44:40.021Z,99981.09
2023-02-23T02:47:08.134Z,99976.69
2023-02-23T02:49:35.974Z,99968.72
2023-02-23T02:52:05.593Z,99974.16
2023-02-23T02:54:33.427Z,99972.47
2023-02-23T02:57:02.037Z,99972.47
2023-02-23T02:59:47.194Z,99972.47
2023-02-23T03:02:32.651Z,99963.66
2023-02-23T03:05:17.791Z,99967.44
2023-02-23T03:08:03.324Z,99958.78
2023-02-23T03:10:48.822Z,99962.75
2023-02-23T03:13:34.311Z,99965.00
2023-02-23T03:16:19.655Z,99962.47
2023-02-23T03:19:04.841Z,99964.34
2023-02-23T03:21:50.321Z,99964.34
2023-02-23T03:24:35.615Z,99968.31
2023-02-23T03:27:21.112Z,99966.41
2023-02-23T03:30:06.235Z,99971.88
2023-02-23T03:32:51.481Z,99973.75
2023-02-23T03:35:36.608Z,99966.63
2023-02-23T03:38:21.687Z,99976.47
2023-02-23T03:41:06.840Z,99978.16
2023-02-23T03:43:52.162Z,99973.75
2023-02-23T03:46:37.582Z,99979.84
2023-02-23T03:49:23.059Z,99985.31
2023-02-23T03:52:08.108Z,99980.69
2023-02-23T03:54:53.371Z,99980.69
2023-02-23T03:57:38.549Z,99983.59
2023-02-23T04:00:23.917Z,99982.56
2023-02-23T04:03:09.102Z,99988.88
2023-02-23T04:05:54.444Z,99988.88
2023-02-23T04:08:39.693Z,99994.13
2023-02-23T04:11:24.852Z,99989.69
2023-02-23T04:13:51.427Z,99991.78
2023-02-23T04:16:18.012Z,100002.03
2023-02-23T04:18:45.748Z,99993.66
2023-02-23T04:21:13.577Z,99990.09
2023-02-23T04:23:41.759Z,99986.53
2023-02-23T04:26:09.541Z,99990.09
2023-02-23T04:28:37.322Z,99992.81
2023-02-23T04:31:05.130Z,99996.38
2023-02-23T04:33:32.891Z,99991.97
2023-02-23T04:36:00.761Z,99990.09
2023-02-23T04:38:28.658Z,99990.09
2023-02-23T04:40:56.480Z,99993.88
2023-02-23T04:43:24.229Z,99990.75
2023-02-23T04:45:52.028Z,99993.25
2023-02-23T04:48:19.819Z,100001.25
2023-02-23T04:50:47.573Z,99993.25
2023-02-23T04:53:15.338Z,99989.53
2023-02-23T04:55:43.095Z,99990.34
2023-02-23T04:58:13.876Z,99993.25
2023-02-23T05:00:41.669Z,99987.81
2023-02-23T05:03:09.774Z,99992.41
2023-02-23T05:05:37.516Z,99991.59
2023-02-23T05:08:05.257Z,99991.59
2023-02-23T05:10:33.070Z,99991.59
2023-02-23T05:13:01.226Z,99987.38
2023-02-23T05:15:28.986Z,99986.53
2023-02-23T05:17:56.901Z,99985.69
2023-02-23T05:20:24.891Z,99988.59
2023-02-23T05:22:52.710Z,99984.00
2023-02-23T05:25:20.514Z,99985.69
2023-02-23T05:27:48.301Z,99976.88
2023-02-23T05:30:16.075Z,99983.34
2023-02-23T05:32:44.036Z,99976.41
2023-02-23T05:35:12.899Z,99980.38
2023-02-23T05:37:40.714Z,99986.84
2023-02-23T05:40:10.420Z,99975.13
2023-02-23T05:42:39.259Z,99984.34
2023-02-23T05:45:07.675Z,99989.78
2023-02-23T05:47:38.983Z,99991.47
2023-02-23T05:50:06.857Z,99988.09
2023-02-23T05:52:34.849Z,99982.47
2023-02-23T05:55:02.618Z,99988.91
2023-02-23T05:57:30.501Z,99988.28
2023-02-23T05:59:58.293Z,99994.38
2023-02-23T06:02:26.132Z,99987.25
2023-02-23T06:04:54.010Z,99990.81
2023-02-23T06:07:21.769Z,99998.13
2023-02-23T06:09:49.613Z,99993.53
2023-02-23T06:12:17.417Z,100001.69
2023-02-23T06:14:45.578Z,99997.97
2023-02-23T06:17:13.437Z,100006.13
2023-02-23T06:19:41.282Z,100012.41
2023-02-23T06:22:09.141Z,100007.81
2023-02-23T06:24:36.903Z,100005.91
2023-02-23T06:27:05.435Z,100005.91
2023-02-23T06:29:33.151Z,100014.09
2023-02-23T06:32:01.309Z,100013.06
2023-02-23T06:34:29.173Z,100018.69
2023-02-23T06:36:56.984Z,100017.03
2023-02-23T06:39:24.750Z,100019.94
2023-02-23T06:41:52.561Z,100016.16
2023-02-23T06:44:20.408Z,100017.84
2023-02-23T06:46:48.318Z,100017.84
2023-02-23T06:49:16.709Z,100024.97
2023-02-23T06:51:44.584Z,100024.97
2023-02-23T06:54:17.368Z,100033.38
2023-02-23T06:56:45.611Z,100028.94
2023-02-23T06:59:13.386Z,100030.81
2023-02-23T07:01:42.492Z,100029.97
2023-02-23T07:04:10.293Z,100036.25
2023-02-23T07:06:38.236Z,100032.69
2023-02-23T07:09:06.090Z,100038.34
2023-02-23T07:11:33.874Z,100038.34
2023-02-23T07:14:02.112Z,100042.09
2023-02-23T07:16:29.993Z,100035.81
2023-02-23T07:18:57.883Z,100042.09
2023-02-23T07:21:25.710Z,100042.09
2023-02-23T07:23:53.481Z,100043.13
2023-02-23T07:26:21.289Z,100045.84
2023-02-23T07:28:49.244Z,100048.56
2023-02-23T07:33:51.073Z,100056.28
2023-02-23T07:36:18.886Z,100056.09
2023-02-23T07:38:46.700Z,100067.00
2023-02-23T07:41:14.441Z,100062.56
2023-02-23T07:43:42.314Z,100060.91
2023-02-23T07:46:10.256Z,100066.34
2023-02-23T07:48:38.628Z,100068.00
2023-02-23T07:51:07.254Z,100065.28
2023-02-23T07:53:36.615Z,100070.75
2023-02-23T07:56:04.350Z,100064.63
2023-02-23T07:58:32.437Z,100069.25
2023-02-23T08:01:00.391Z,100059.19
2023-02-23T08:03:28.260Z,100068.41
2023-02-23T08:05:59.259Z,100066.72
2023-02-23T08:08:27.094Z,100064.00
2023-02-23T08:10:56.241Z,100074.91
2023-02-23T08:13:24.118Z,100069.63
2023-02-23T08:15:52.040Z,100068.78
2023-02-23T08:18:20.024Z,100072.53
2023-02-23T08:20:48.002Z,100065.41
2023-02-23T08:23:17.340Z,100071.69
2023-02-23T08:25:45.083Z,100068.13
2023-02-23T08:28:14.045Z,100071.69
2023-02-23T08:30:41.996Z,100085.50
2023-02-23T08:33:09.733Z,100081.75
2023-02-23T08:35:37.503Z,100085.50
2023-02-23T08:38:05.279Z,100080.91
2023-02-23T08:40:33.005Z,100076.31
2023-02-23T08:43:00.758Z,100070.84
2023-02-23T08:45:30.013Z,100070.84
2023-02-23T08:47:57.826Z,100072.09
2023-02-23T08:50:27.394Z,100077.34
2023-02-23T08:52:55.418Z,100074.81
2023-02-23T08:55:24.022Z,100076.31
2023-02-23T08:57:51.733Z,100064.56
2023-02-23T09:00:19.504Z,100070.84
2023-02-23T09:02:50.262Z,100068.78
2023-02-23T09:05:18.082Z,100066.25
2023-02-23T09:07:45.993Z,100081.34
2023-02-23T09:10:13.778Z,100078.84
2023-02-23T09:12:41.602Z,100080.69
2023-02-23T09:15:09.493Z,100078.84
2023-02-23T09:17:37.368Z,100085.13
2023-02-23T09:20:05.130Z,100081.56
2023-02-23T09:22:32.910Z,100087.84
2023-02-23T09:25:00.609Z,100094.97
2023-02-23T09:27:28.384Z,100084.28
2023-02-23T09:29:56.110Z,100090.38
2023-02-23T09:32:24.011Z,100083.06
2023-02-23T09:34:52.611Z,100087.47
2023-02-23T09:37:20.385Z,100085.78
2023-02-23T09:39:48.862Z,100075.06
2023-02-23T09:42:16.645Z,100077.63
2023-02-23T09:44:45.161Z,100088.50
2023-02-23T09:47:12.973Z,100087.47
2023-02-23T09:49:41.020Z,100090.19
2023-02-23T09:52:09.135Z,100093.09
2023-02-23T09:54:37.005Z,100093.97
2023-02-23T09:57:04.935Z,100093.09
2023-02-23T09:59:32.726Z,100098.53
2023-02-23T10:02:00.500Z,100098.53
2023-02-23T10:04:28.878Z,100102.13
2023-02-23T10:06:56.725Z,100093.97
2023-02-23T10:09:24.504Z,100101.06
2023-02-23T10:11:52.528Z,100102.97
2023-02-23T10:14:20.241Z,100102.97
2023-02-23T10:16:48.036Z,100102.13
2023-02-23T10:19:15.889Z,100104.84
2023-02-23T10:21:43.676Z,100098.53
2023-02-23T10:24:11.453Z,100105.03
2023-02-23T10:26:39.469Z,100109.63
2023-02-23T10:29:07.188Z,100105.19
2023-02-23T10:31:35.133Z,100100.41
2023-02-23T10:34:02.969Z,100097.03
2023-02-23T10:36:30.802Z,100105.19
2023-02-23T10:38:58.586Z,100100.63
2023-02-23T10:41:26.489Z,100106.91
2023-02-23T10:43:54.289Z,100103.97
2023-02-23T10:46:22.128Z,100098.53
2023-02-23T10:48:49.955Z,100098.75
2023-02-23T10:51:17.987Z,100097.69
2023-02-23T10:53:45.937Z,100104.84
2023-02-23T10:56:13.867Z,100092.25
2023-02-23T10:58:41.631Z,100099.41
2023-02-23T11:01:09.365Z,100097.69
2023-02-23T11:03:37.161Z,100094.78
2023-02-23T11:06:04.970Z,100096.69
2023-02-23T11:08:32.778Z,100095.63
2023-02-23T11:11:00.580Z,100084.91
2023-02-23T11:13:28.590Z,100092.91
2023-02-23T11:15:56.372Z,100081.19
2023-02-23T11:18:24.526Z,100082.03
2023-02-23T11:20:52.395Z,100074.91
2023-02-23T11:23:20.169Z,100076.56
2023-02-23T11:25:49.506Z,100067.56
2023-02-23T11:28:17.743Z,100075.75
2023-02-23T11:30:45.543Z,100072.81
2023-02-23T11:33:13.402Z,100066.53
2023-02-23T11:35:41.187Z,100064.84
2023-02-23T11:38:10.052Z,100060.22
2023-02-23T11:40:37.833Z,100057.50
2023-02-23T11:43:06.356Z,100054.78
2023-02-23T11:45:34.590Z,100059.00
2023-02-23T11:48:02.379Z,100049.16
2023-02-23T11:50:30.186Z,100053.75
2023-02-23T11:52:57.993Z,100051.69
2023-02-23T11:55:26.081Z,100039.13
2023-02-23T11:57:56.768Z,100047.94
2023-02-23T12:00:24.555Z,100051.69
2023-02-23T12:02:53.841Z,100044.34
2023-02-23T12:05:22.108Z,100042.84
2023-02-23T12:07:49.942Z,100033.00
2023-02-23T12:10:17.705Z,100044.56
2023-02-23T12:12:45.540Z,100042.84
2023-02-23T12:15:14.732Z,100043.72
2023-02-23T12:17:42.571Z,100047.47
2023-02-23T12:20:11.366Z,100042.22
2023-02-23T12:22:39.191Z,100034.06
2023-02-23T12:25:07.011Z,100040.34
2023-02-23T12:27:34.765Z,100038.63
2023-02-23T12:30:02.593Z,100036.78
2023-02-23T12:32:30.457Z,100029.63
2023-02-23T12:34:58.303Z,100032.34
2023-02-23T12:37:29.063Z,100029.63
2023-02-23T12:39:57.619Z,100025.22
2023-02-23T12:42:25.596Z,100027.97
2023-02-23T12:44:53.403Z,100029.63
2023-02-23T12:47:21.137Z,100027.75
2023-02-23T12:49:48.977Z,100027.75
2023-02-23T12:52:16.734Z,100027.75
2023-02-23T12:54:47.042Z,100020.63
2023-02-23T12:57:14.856Z,100029.63
2023-02-23T12:59:42.628Z,100023.16
2023-02-23T13:02:12.192Z,100023.34
2023-02-23T13:04:40.028Z,100020.63
2023-02-23T13:07:07.829Z,100024.19
2023-02-23T13:09:35.567Z,100025.22
2023-02-23T13:12:03.358Z,100025.03
2023-02-23T13:14:31.182Z,100027.75
2023-02-23T13:16:59.046Z,100027.75
2023-02-23T13:19:26.852Z,100026.91
2023-02-23T13:21:55.091Z,100020.63
2023-02-23T13:24:22.887Z,100019.78
2023-02-23T13:26:50.769Z,100019.56
2023-02-23T13:29:18.596Z,100021.47
2023-02-23T13:31:47.033Z,100012.44
2023-02-23T13:34:14.891Z,100013.28
2023-02-23T13:36:43.078Z,100013.50
2023-02-23T13:39:18.580Z,100007.19
2023-02-23T13:41:47.074Z,100014.34
2023-02-23T13:44:14.883Z,100008.91
2023-02-23T13:46:42.710Z,100002.63
2023-02-23T13:49:10.510Z,99998.84
2023-02-23T13:51:38.276Z,99999.69
2023-02-23T13:54:06.191Z,99998.84
2023-02-23T13:56:33.997Z,100004.28
2023-02-23T13:59:01.823Z,99998.84
2023-02-23T14:01:29.667Z,100005.13
2023-02-23T14:03:57.582Z,100005.13
2023-02-23T14:06:25.694Z,100007.84
2023-02-23T14:08:53.519Z,100006.84
2023-02-23T14:11:21.235Z,99997.78
2023-02-23T14:13:48.996Z,99995.28
2023-02-23T14:16:16.885Z,100001.56
2023-02-23T14:18:44.777Z,100001.75
2023-02-23T14:21:12.554Z,100004.47
2023-02-23T14:23:40.308Z,100001.75
2023-02-23T14:26:08.152Z,100001.97
2023-02-23T14:28:35.926Z,100001.13
2023-02-23T14:31:03.865Z,99996.69
2023-02-23T14:33:31.732Z,99997.53
2023-02-23T14:35:59.524Z,99995.03
2023-02-23T14:38:29.983Z,99993.31
2023-02-23T14:41:02.195Z,99998.75
2023-02-23T14:43:31.700Z,99993.53
2023-02-23T14:45:59.552Z,99999.66
2023-02-23T14:48:27.333Z,99998.66
2023-02-23T14:50:55.183Z,99994.75
2023-02-23T14:53:23.412Z,99995.75
2023-02-23T14:55:51.197Z,99996.44
2023-02-23T14:58:19.426Z,99991.63
2023-02-23T15:00:49.011Z,99984.31
2023-02-23T15:03:17.088Z,99996.44
2023-02-23T15:05:44.854Z,99983.78
2023-02-23T15:08:12.580Z,99988.69
2023-02-23T15:10:40.318Z,99983.38
2023-02-23T15:13:08.113Z,99983.19
2023-02-23T15:15:35.935Z,99985.56
2023-02-23T15:18:03.720Z,99986.72
2023-02-23T15:20:32.813Z,99987.59
2023-02-23T15:23:00.647Z,99979.44
2023-02-23T15:25:28.722Z,99984.59
2023-02-23T15:27:56.618Z,99989.06
2023-02-23T15:30:24.395Z,99985.19
2023-02-23T15:32:52.265Z,99989.41
2023-02-23T15:35:20.217Z,99981.63
2023-02-23T15:37:55.237Z,99981.34
2023-02-23T15:40:33.451Z,99987.47
2023-02-23T15:43:01.660Z,99983.53
2023-02-23T15:45:29.801Z,99986.91
2023-02-23T15:47:57.578Z,99981.50
2023-02-23T15:50:36.260Z,99981.78
2023-02-23T15:53:04.826Z,99968.75
2023-02-23T15:55:34.709Z,99981.59
2023-02-23T15:58:02.482Z,99980.25
2023-02-23T16:00:32.761Z,99981.84
2023-02-23T16:03:00.629Z,99978.97
2023-02-23T16:05:32.526Z,99977.13
2023-02-23T16:08:05.710Z,99983.34
2023-02-23T16:10:33.571Z,99981.16
2023-02-23T16:13:03.289Z,99986.44
2023-02-23T16:15:31.077Z,99982.38
2023-02-23T16:17:58.987Z,99979.13
2023-02-23T16:20:26.828Z,99984.03
2023-02-23T16:22:55.015Z,99985.63
2023-02-23T16:25:22.798Z,99978.00
2023-02-23T16:27:51.468Z,99978.63
2023-02-23T16:30:20.005Z,99978.31
2023-02-23T16:32:47.888Z,99978.28
2023-02-23T16:35:15.780Z,99980.09
2023-02-23T16:37:43.562Z,99982.66
2023-02-23T16:40:11.589Z,99974.06
2023-02-23T16:42:39.486Z,99974.00
2023-02-23T16:45:08.080Z,99973.78
2023-02-23T16:47:36.620Z,99975.22
2023-02-23T16:50:18.850Z,99971.75
2023-02-23T16:52:47.437Z,99985.72
2023-02-23T16:55:18.234Z,99979.41
2023-02-23T16:57:46.018Z,99995.25
2023-02-23T17:00:18.179Z,99992.31
2023-02-23T17:02:58.673Z,99996.66
2023-02-23T17:05:26.511Z,99995.50
2023-02-23T17:07:54.299Z,99991.59
2023-02-23T17:10:26.117Z,99997.06
2023-02-23T17:12:54.167Z,99995.03
2023-02-23T17:15:21.924Z,99994.59
2023-02-23T17:17:49.713Z,99986.22
2023-02-23T17:20:21.806Z,99997.75
2023-02-23T17:22:49.781Z,99997.72
2023-02-23T17:25:17.550Z,99999.97
2023-02-23T17:27:45.462Z,99998.28
2023-02-23T17:30:13.286Z,99993.88
2023-02-23T17:32:41.330Z,99991.66
2023-02-23T17:35:09.252Z,99993.16
2023-02-23T17:37:38.710Z,99995.03
2023-02-23T17:40:06.751Z,99992.03
2023-02-23T17:42:35.063Z,99988.63
2023-02-23T17:45:03.153Z,99987.66
2023-02-23T17:47:30.970Z,99997.47
2023-02-23T17:49:58.970Z,99997.66
2023-02-23T17:52:26.943Z,99995.03
2023-02-23T17:54:55.378Z,99995.53
2023-02-23T17:57:23.219Z,99994.63
2023-02-23T17:59:51.410Z,99991.13
2023-02-23T18:02:20.668Z,99997.13
2023-02-23T18:04:48.487Z,99990.78
2023-02-23T18:07:17.201Z,100005.72
2023-02-23T18:09:45.668Z,99994.66
2023-02-23T18:12:13.470Z,100004.56
2023-02-23T18:14:42.314Z,99995.22
2023-02-23T18:17:10.097Z,100001.41
2023-02-23T18:19:38.188Z,100002.16
2023-02-23T18:22:06.054Z,100000.13
2023-02-23T18:24:33.871Z,99995.63
2023-02-23T18:27:02.633Z,100001.25
2023-02-23T18:29:30.628Z,99994.53
2023-02-23T18:31:58.856Z,100008.63
2023-02-23T18:34:27.362Z,100000.78
2023-02-23T18:36:55.156Z,100002.19
2023-02-23T18:39:23.043Z,100001.34
2023-02-23T18:41:50.973Z,100001.09
2023-02-23T18:44:19.036Z,100012.41
2023-02-23T18:46:47.268Z,100011.91
2023-02-23T18:49:15.149Z,100017.47
2023-02-23T18:51:43.555Z,100009.94
2023-02-23T18:54:18.382Z,100007.47
2023-02-23T18:56:46.190Z,100013.25
2023-02-23T18:59:13.952Z,100003.31
2023-02-23T19:01:42.583Z,100003.78
2023-02-23T19:04:11.864Z,100003.56
2023-02-23T19:06:41.821Z,100002.09
2023-02-23T19:09:12.578Z,100004.66
2023-02-23T19:11:40.564Z,100008.78
2023-02-23T19:14:08.428Z,100010.38
2023-02-23T19:16:36.272Z,100008.06
2023-02-23T19:19:04.239Z,100009.53
2023-02-23T19:21:32.908Z,100000.22
2023-02-23T19:24:02.469Z,100002.44
2023-02-23T19:26:30.281Z,100003.91
2023-02-23T19:28:58.071Z,99997.97
2023-02-23T19:31:26.276Z,99998.66
2023-02-23T19:33:54.648Z,100000.75
2023-02-23T19:36:22.478Z,99997.34
2023-02-23T19:38:50.309Z,99996.19
2023-02-23T19:41:18.293Z,99989.97
2023-02-23T19:43:46.792Z,99993.66
2023-02-23T19:46:15.521Z,99992.41
2023-02-23T19:48:44.810Z,99989.50
2023-02-23T19:51:13.370Z,99989.28
2023-02-23T19:53:41.152Z,99996.22
2023-02-23T19:56:09.081Z,100001.00
2023-02-23T19:58:36.893Z,99998.16
2023-02-23T20:01:04.698Z,99997.66
2023-02-23T20:03:32.426Z,100002.59
2023-02-23T20:06:00.351Z,100001.41
2023-02-23T20:08:28.343Z,100001.66
2023-02-23T20:10:56.164Z,99998.09
2023-02-23T20:13:24.576Z,100001.72
2023-02-23T20:15:52.497Z,99993.50
2023-02-23T20:18:21.212Z,99992.44
2023-02-23T20:20:49.085Z,99998.09
2023-02-23T20:23:16.921Z,99995.38
2023-02-23T20:25:45.549Z,99998.34
2023-02-23T20:28:13.937Z,99989.34
2023-02-23T20:30:41.830Z,99987.69
2023-02-23T20:33:12.004Z,99986.84
2023-02-23T20:35:39.803Z,99991.03
2023-02-23T20:38:07.601Z,99991.91
2023-02-23T20:40:35.637Z,99984.56
2023-02-23T20:43:03.495Z,99985.81
2023-02-23T20:45:32.006Z,99987.69
2023-02-23T20:47:59.866Z,99981.59
2023-02-23T20:50:31.495Z,99988.13
2023-02-23T20:53:00.975Z,99993.78
2023-02-23T20:55:28.971Z,99979.69
2023-02-23T20:57:57.155Z,99978.66
2023-02-23T21:00:32.118Z,99983.03
2023-02-23T21:02:59.985Z,99982.63
2023-02-23T21:05:27.815Z,99982.41
2023-02-23T21:07:56.924Z,99970.56
2023-02-23T21:10:24.935Z,99975.81
2023-02-23T21:12:54.138Z,99979.97
2023-02-23T21:15:24.580Z,99979.97
2023-02-23T21:17:52.330Z,99987.53
2023-02-23T21:20:21.049Z,99981.00
2023-02-23T21:25:19.398Z,99983.28
2023-02-23T21:27:47.217Z,99991.88
2023-02-23T21:30:16.230Z,99981.38
2023-02-23T21:32:44.345Z,99988.06
2023-02-23T21:35:12.275Z,99979.44
2023-02-23T21:37:40.331Z,99981.50
2023-02-23T21:40:10.394Z,99976.28
2023-02-23T21:42:38.283Z,99977.31
2023-02-23T21:45:06.074Z,99980.44
2023-02-23T21:47:34.121Z,99981.91
2023-02-23T21:50:02.731Z,99972.25
2023-02-23T21:52:31.532Z,99978.13
2023-02-23T21:54:59.721Z,99977.66
2023-02-23T21:57:28.315Z,99970.97
2023-02-23T21:59:56.335Z,99975.16
2023-02-23T22:02:25.094Z,99974.50
2023-02-23T22:04:53.088Z,99973.03
2023-02-23T22:07:21.863Z,99979.69
2023-02-23T22:09:49.934Z,99985.56
2023-02-23T22:12:17.729Z,99988.47
2023-02-23T22:14:45.590Z,99978.78
2023-02-23T22:17:13.898Z,99985.31
2023-02-23T22:19:41.909Z,99973.75
2023-02-23T22:22:09.678Z,99976.66
2023-02-23T22:24:37.491Z,99966.16
2023-02-23T22:27:06.716Z,99972.44
2023-02-23T22:29:34.659Z,99960.06
2023-02-23T22:32:02.690Z,99967.41
2023-02-23T22:34:30.524Z,99964.03
2023-02-23T22:36:58.422Z,99953.53
2023-02-23T22:39:27.324Z,99950.81
2023-02-23T22:41:55.228Z,99949.31
2023-02-23T22:44:23.141Z,99946.59
2023-02-23T22:46:52.295Z,99942.84
2023-02-23T22:49:20.484Z,99943.22
2023-02-23T22:51:48.540Z,99945.09
2023-02-23T22:54:17.388Z,99933.78
2023-02-23T22:56:46.882Z,99928.50
2023-02-23T22:59:17.624Z,99935.00
2023-02-23T23:01:47.878Z,99932.28
2023-02-23T23:04:16.359Z,99929.75
2023-02-23T23:06:44.366Z,99928.06
2023-02-23T23:09:12.909Z,99931.00
2023-02-23T23:11:42.407Z,99923.03
2023-02-23T23:14:10.675Z,99919.47
2023-02-23T23:16:40.616Z,99923.22
2023-02-23T23:19:12.280Z,99923.22
2023-02-23T23:21:40.382Z,99922.38
2023-02-23T23:24:08.176Z,99923.44
2023-02-23T23:26:36.127Z,99923.44
2023-02-23T23:29:05.008Z,99919.84
2023-02-23T23:31:33.008Z,99923.81
2023-02-23T23:34:00.977Z,99919.41
2023-02-23T23:36:28.884Z,99916.69
2023-02-23T23:38:57.054Z,99918.34
2023-02-23T23:41:25.481Z,99913.97
2023-02-23T23:43:54.677Z,99908.69
2023-02-23T23:46:24.569Z,99908.91
2023-02-23T23:48:54.458Z,99912.47
2023-02-23T23:51:24.271Z,99911.63
2023-02-23T23:53:52.962Z,99911.81
2023-02-23T23:56:21.977Z,99912.88
2023-02-23T23:58:49.957Z,99914.97
